Airfield :
LOGIN :

Register | Disclaimer

   EN    FR    IT 

 










Legend :    VFR   Marginal VFR   IFR   Intensive IFR   Very Intensive IFR
Visi :
Ceiling :
>= 8 km
>= 3000ft
5 to 8 km
1000 to 3000 ft
1500m to 5 km
500 to 1000 ft
800 to 1500m
200 to 500 ft
< 800m
< 200 ft
Symbols :   Thunderstorms  Fog  Heavy snow  Heavy precipitations  Wind > 20 kt
SIGMETs :     Misc.  Thunderstorms  Icing  Turbulence  Mountain Waves  Volcanic Ashes







- Airport Elevation : 313 ft
- IATA code : LEH
- Download approach charts


LFOH - Le Havre Octeville

CURRENT METAR :
  • 181530Z AUTO 14009KT CAVOK 05/M03 Q1016 NOSIG

EXPIRED METARs :
  • 181500Z AUTO 14009KT 110V180 CAVOK 05/M03 Q1016 NOSIG
  • 181430Z AUTO 15010KT 110V180 CAVOK 06/M03 Q1016 NOSIG
  • 181400Z AUTO 15009KT CAVOK 05/M03 Q1016 NOSIG
  • 181330Z AUTO 15011KT CAVOK 05/M03 Q1016 NOSIG
  • 181300Z AUTO 15009KT 120V190 CAVOK 05/M03 Q1017 NOSIG

TAF TAF LFOH
Valid from the 18 at 12:00 until the 19 at 12:00 UTC


181100Z 1812/1912 16010KT CAVOK
BECMG 1906/1910 OVC011
PROB30
TEMPO 1906/1910 2000 FZRA
TEMPO 1910/1912 3000 -RA OVC005
ATIS : +33 2 35 54 64 93
No reported NOTAMs for that airfield.



MET'MAP, your aeronautical weather chart ! - Copyright ORBIFLY December 2007 - Disclaimer

ORBIFLY MET'MAP TEAM :

Programming & Development : Alexandra Zaïnal
Concept & Development : Baudouin d'Aumeries
Co-Development & Prog : Marc-Olivier Méhu
Technical & hardware support : Manuel Goepfert

Contact : metmap@orbifly.com




SOURCES & CREDITS :

   NOAA